LFPN 121000Z AUTO 22005KT 9999 FEW037 BKN060 02/02 Q1011

ElémentsDécodage
LFPN Station météo située sur l'aérodrome de TOUSSUS-LE-NOBLE
121000Z émis le 12 du mois à 10h00 UTC
AUTO Bulletin édité par un automate
22005KT vent du 220°, 05 noeuds
9999 visibilité horizontale supérieure à 10 Km
FEW037 nuages rares (1/8 à 2/8) à 3700 pieds
BKN060 nuages morcelés (5/8 à 7/8) à 6000 pieds
02/02 température 02°C, point de rosée 02°C
 soit une humidité relative de 100%
Q1011 la pression au niveau de la mer (QNH) est de 1011 hPa